Time;durP1;ratioP1;P1;durP2;ratioP2;P2;SDS_P1;SDS_P2;PMS_P1;PMS_P2;Temp;Humidity;BMP_temperature;BMP_pressure;BME280_temperature;BME280_humidity;BME280_pressure;Samples;Min_cycle;Max_cycle;Signal;HPM_P1;HPM_P2
2022/10/28 00:02:15;;;;;;;8.50;2.67;;;15.00;99.90;;;;;;5064076;28;20588;-74
2022/10/28 00:04:40;;;;;;;6.13;2.88;;;15.00;99.90;;;;;;5062048;28;20565;-74
2022/10/28 00:07:06;;;;;;;4.93;2.40;;;15.00;99.90;;;;;;5061985;28;20209;-74
2022/10/28 00:09:32;;;;;;;6.03;2.20;;;14.90;99.90;;;;;;5063063;28;20063;-74
2022/10/28 00:11:57;;;;;;;7.72;2.50;;;14.90;99.90;;;;;;5063913;28;20044;-74
2022/10/28 00:14:23;;;;;;;5.90;2.40;;;14.90;99.90;;;;;;5065001;28;20383;-74
2022/10/28 00:16:48;;;;;;;6.75;2.92;;;14.90;99.90;;;;;;5063707;28;20076;-74
2022/10/28 00:19:14;;;;;;;6.32;2.47;;;14.90;99.90;;;;;;5058945;28;20525;-74
2022/10/28 00:21:42;;;;;;;6.30;2.42;;;14.90;99.90;;;;;;5063050;28;20552;-74
2022/10/28 00:24:09;;;;;;;5.00;2.55;;;14.90;99.90;;;;;;5063976;28;20055;-74
2022/10/28 00:26:36;;;;;;;6.45;2.90;;;14.90;99.90;;;;;;5062150;28;20048;-74
2022/10/28 00:29:10;;;;;;;9.82;2.90;;;14.90;99.90;;;;;;5078015;28;20044;-74
2022/10/28 00:31:36;;;;;;;5.20;2.53;;;14.90;99.90;;;;;;5062305;28;20486;-74
2022/10/28 00:34:04;;;;;;;6.93;3.08;;;14.90;99.90;;;;;;5060156;28;20048;-74
2022/10/28 00:36:34;;;;;;;4.72;2.80;;;14.90;99.90;;;;;;5060602;28;20131;-74
2022/10/28 00:39:01;;;;;;;4.70;2.72;;;14.90;99.90;;;;;;5061679;28;20085;-74
2022/10/28 00:41:37;;;;;;;6.45;3.05;;;14.90;99.90;;;;;;5062721;28;20037;-74
2022/10/28 00:44:41;;;;;;;4.15;2.28;;;14.90;99.90;;;;;;5045280;28;20498;-74
2022/10/28 00:47:15;;;;;;;5.22;2.63;;;14.90;99.90;;;;;;5060382;28;20049;-74
2022/10/28 00:49:44;;;;;;;5.80;2.53;;;14.90;99.90;;;;;;5064095;28;20044;-74
2022/10/28 00:52:15;;;;;;;7.63;3.70;;;14.90;99.90;;;;;;5046486;28;20045;-74
2022/10/28 00:54:42;;;;;;;5.95;3.05;;;14.90;99.90;;;;;;5060282;28;20079;-74
2022/10/28 00:57:13;;;;;;;5.78;2.88;;;14.90;99.90;;;;;;5062856;28;20041;-74
2022/10/28 00:59:42;;;;;;;7.40;3.28;;;14.90;99.90;;;;;;5061627;28;20043;-74
2022/10/28 01:02:08;;;;;;;4.97;2.63;;;14.90;99.90;;;;;;5043569;28;20032;-74
2022/10/28 01:04:34;;;;;;;9.35;2.67;;;15.00;99.90;;;;;;5045366;28;20091;-74
2022/10/28 01:07:01;;;;;;;5.20;2.55;;;15.00;99.90;;;;;;5061334;28;20044;-74
2022/10/28 01:09:26;;;;;;;5.63;3.08;;;15.00;99.90;;;;;;5046959;28;20045;-74
2022/10/28 01:12:24;;;;;;;10.00;3.17;;;15.00;99.90;;;;;;5062718;28;20098;-74
2022/10/28 01:15:03;;;;;;;10.52;3.05;;;15.00;99.90;;;;;;5034224;28;20532;-74
2022/10/28 01:18:04;;;;;;;6.40;3.22;;;15.00;99.90;;;;;;5076093;28;20052;-74
2022/10/28 01:21:06;;;;;;;5.72;3.08;;;15.10;99.90;;;;;;5011918;28;20486;-74
2022/10/28 01:24:15;;;;;;;6.10;3.08;;;15.10;99.90;;;;;;5075893;28;20048;-74
2022/10/28 01:26:43;;;;;;;8.13;3.33;;;15.00;99.90;;;;;;5062382;28;20517;-74
2022/10/28 01:29:24;;;;;;;8.23;2.92;;;15.00;99.90;;;;;;5060741;28;20607;-74
2022/10/28 01:31:53;;;;;;;5.28;2.50;;;15.10;99.90;;;;;;5061138;28;20479;-74
2022/10/28 01:34:31;;;;;;;6.07;2.72;;;15.10;99.90;;;;;;5061701;28;20052;-74
2022/10/28 01:37:11;;;;;;;3.78;2.33;;;15.10;99.90;;;;;;5057963;28;20094;-74
2022/10/28 01:39:50;;;;;;;7.00;2.78;;;15.10;99.90;;;;;;5059097;28;20086;-74
2022/10/28 01:42:39;;;;;;;5.55;2.65;;;15.00;99.90;;;;;;5056181;28;20048;-74
2022/10/28 01:45:33;;;;;;;4.60;2.38;;;15.10;99.90;;;;;;5057355;28;20115;-74
2022/10/28 01:48:08;;;;;;;8.35;3.50;;;15.00;99.90;;;;;;5059630;28;20075;-74
2022/10/28 01:50:45;;;;;;;5.35;2.33;;;15.00;99.90;;;;;;5045443;28;20089;-74
2022/10/28 01:53:17;;;;;;;6.97;2.65;;;15.00;99.90;;;;;;5073712;28;20111;-74
2022/10/28 01:55:46;;;;;;;5.32;2.85;;;15.00;99.90;;;;;;5073860;28;20044;-74
2022/10/28 01:58:17;;;;;;;10.18;3.10;;;15.00;99.90;;;;;;5062203;28;20486;-74
2022/10/28 02:00:45;;;;;;;6.95;3.13;;;15.00;99.90;;;;;;5059412;28;20517;-74
2022/10/28 02:03:11;;;;;;;6.22;2.92;;;15.00;99.90;;;;;;5060083;28;20437;-74
2022/10/28 02:05:41;;;;;;;9.35;2.60;;;15.00;99.90;;;;;;5062655;28;20094;-74
2022/10/28 02:08:32;;;;;;;5.40;2.70;;;14.90;99.90;;;;;;5058087;28;20040;-74
2022/10/28 02:11:09;;;;;;;9.38;2.85;;;15.00;99.90;;;;;;5061172;28;20048;-74
2022/10/28 02:14:02;;;;;;;8.52;3.15;;;15.00;99.90;;;;;;5061895;28;20431;-74
2022/10/28 02:16:33;;;;;;;7.18;3.25;;;14.90;99.90;;;;;;5062430;28;20583;-74
2022/10/28 02:19:25;;;;;;;5.22;2.83;;;14.90;99.90;;;;;;5060965;28;20036;-74
2022/10/28 02:21:53;;;;;;;6.30;3.22;;;14.90;99.90;;;;;;5060283;28;20494;-74
2022/10/28 02:24:27;;;;;;;8.48;2.80;;;14.90;99.90;;;;;;5061740;28;20444;-74
2022/10/28 02:27:11;;;;;;;14.13;3.25;;;14.90;99.90;;;;;;5058829;28;20055;-74
2022/10/28 02:29:48;;;;;;;7.15;2.83;;;14.90;99.90;;;;;;5061167;28;20084;-74
2022/10/28 02:32:20;;;;;;;5.63;2.75;;;14.90;99.90;;;;;;5060868;28;20044;-74
2022/10/28 02:34:49;;;;;;;7.40;3.33;;;14.90;99.90;;;;;;5059911;28;20040;-74
2022/10/28 02:37:22;;;;;;;8.10;3.00;;;14.80;99.90;;;;;;5060083;28;20109;-74
2022/10/28 02:39:52;;;;;;;5.15;2.70;;;14.90;99.90;;;;;;5058758;28;20036;-74
2022/10/28 02:42:23;;;;;;;5.85;3.10;;;14.90;99.90;;;;;;5058146;28;20047;-74
2022/10/28 02:44:53;;;;;;;5.95;3.15;;;14.80;99.90;;;;;;5059262;28;20066;-74
2022/10/28 02:47:25;;;;;;;5.55;3.08;;;14.80;99.90;;;;;;5045435;28;20052;-74
2022/10/28 02:49:55;;;;;;;9.18;3.17;;;14.80;99.90;;;;;;5043638;28;20052;-74
2022/10/28 02:52:23;;;;;;;6.60;3.08;;;14.80;99.90;;;;;;5061967;28;20094;-74
2022/10/28 02:54:54;;;;;;;5.30;2.85;;;14.80;99.90;;;;;;5059053;28;20444;-74
2022/10/28 02:57:24;;;;;;;9.30;3.00;;;14.80;99.90;;;;;;5059576;28;20504;-74
2022/10/28 02:59:56;;;;;;;7.97;2.95;;;14.80;99.90;;;;;;5061198;28;20119;-74
2022/10/28 03:02:22;;;;;;;7.05;2.80;;;14.80;99.90;;;;;;5042469;28;20036;-74
2022/10/28 03:04:48;;;;;;;5.18;2.75;;;14.70;99.90;;;;;;5046345;28;20028;-74
2022/10/28 03:07:13;;;;;;;8.48;3.40;;;14.70;99.90;;;;;;5061297;28;20086;-74
2022/10/28 03:09:39;;;;;;;7.30;3.30;;;14.70;99.90;;;;;;5059225;28;20460;-74
2022/10/28 03:12:05;;;;;;;5.28;2.72;;;14.70;99.90;;;;;;5059380;28;20505;-74
2022/10/28 03:14:30;;;;;;;6.32;3.28;;;14.60;99.90;;;;;;5042511;28;20056;-74
2022/10/28 03:16:56;;;;;;;6.38;3.05;;;14.60;99.90;;;;;;5055827;28;20451;-74
2022/10/28 03:19:22;;;;;;;5.80;2.55;;;14.60;99.90;;;;;;5060869;28;20119;-74
2022/10/28 03:21:47;;;;;;;9.50;3.25;;;14.50;99.90;;;;;;5044026;28;20043;-74
2022/10/28 03:24:13;;;;;;;8.35;3.03;;;14.60;99.90;;;;;;5059154;28;20123;-74
2022/10/28 03:26:38;;;;;;;6.47;3.10;;;14.50;99.90;;;;;;5058350;28;20646;-74
2022/10/28 03:29:04;;;;;;;5.00;2.40;;;14.50;99.90;;;;;;5061759;28;20036;-74
2022/10/28 03:31:30;;;;;;;6.72;2.63;;;14.50;99.90;;;;;;5059330;28;20029;-74
2022/10/28 03:33:55;;;;;;;5.10;2.70;;;14.50;99.90;;;;;;5059132;28;20464;-74
2022/10/28 03:36:21;;;;;;;11.02;3.22;;;14.40;99.90;;;;;;5058646;28;20059;-74
2022/10/28 03:38:47;;;;;;;6.97;3.00;;;14.50;99.90;;;;;;5057574;28;20052;-74
2022/10/28 03:41:12;;;;;;;7.50;2.58;;;14.40;99.90;;;;;;5058164;28;20037;-74
2022/10/28 03:43:38;;;;;;;8.27;3.15;;;14.40;99.90;;;;;;5043801;28;20115;-74
2022/10/28 03:46:03;;;;;;;7.15;2.97;;;14.40;99.90;;;;;;5044038;28;20517;-74
2022/10/28 03:48:29;;;;;;;5.70;2.65;;;14.40;99.90;;;;;;5058717;28;20093;-74
2022/10/28 03:50:55;;;;;;;4.85;2.72;;;14.30;99.90;;;;;;5057988;28;20478;-74
2022/10/28 03:53:21;;;;;;;5.18;3.20;;;14.40;99.90;;;;;;5059589;28;20082;-74
2022/10/28 03:55:54;;;;;;;6.22;2.95;;;14.30;99.90;;;;;;5043392;28;20123;-74
2022/10/28 03:58:20;;;;;;;5.82;2.88;;;14.30;99.90;;;;;;5061223;28;20113;-74
2022/10/28 04:00:48;;;;;;;6.80;3.13;;;14.30;99.90;;;;;;5060918;28;20496;-74
2022/10/28 04:03:14;;;;;;;5.70;2.60;;;14.30;99.90;;;;;;5042747;28;20521;-74
2022/10/28 04:05:40;;;;;;;9.15;2.50;;;14.20;99.90;;;;;;5058359;28;20066;-74
2022/10/28 04:08:06;;;;;;;5.55;2.55;;;14.30;99.90;;;;;;5058995;28;20526;-74
2022/10/28 04:10:31;;;;;;;5.72;2.53;;;14.30;99.90;;;;;;5056213;28;20797;-74
2022/10/28 04:13:01;;;;;;;7.82;3.60;;;14.20;99.90;;;;;;5060551;28;20086;-74
2022/10/28 04:15:27;;;;;;;8.43;3.10;;;14.20;99.90;;;;;;5058931;28;20067;-74
2022/10/28 04:17:53;;;;;;;8.05;3.50;;;14.20;99.90;;;;;;5060385;28;20048;-74
2022/10/28 04:20:18;;;;;;;7.95;2.88;;;14.20;99.90;;;;;;5058027;28;20044;-74
2022/10/28 04:22:44;;;;;;;10.35;2.92;;;14.20;99.90;;;;;;5040979;28;20035;-74
2022/10/28 04:25:09;;;;;;;10.85;3.30;;;14.20;99.90;;;;;;5059579;28;20067;-74
2022/10/28 04:27:35;;;;;;;5.53;2.20;;;14.20;99.90;;;;;;5041977;28;20040;-74
2022/10/28 04:30:01;;;;;;;7.40;2.75;;;14.10;99.90;;;;;;5058569;28;20075;-74
2022/10/28 04:32:27;;;;;;;4.75;2.42;;;14.10;99.90;;;;;;5041134;28;20043;-74
2022/10/28 04:34:52;;;;;;;6.13;2.63;;;14.10;99.90;;;;;;5058481;28;20052;-74
2022/10/28 04:37:18;;;;;;;6.00;2.85;;;14.10;99.90;;;;;;5063039;28;20489;-74
2022/10/28 04:39:43;;;;;;;5.65;3.22;;;14.00;99.90;;;;;;5063102;28;20028;-74
2022/10/28 04:42:09;;;;;;;8.93;3.33;;;14.00;99.90;;;;;;5061539;28;20051;-74
2022/10/28 04:44:34;;;;;;;6.15;2.60;;;14.00;99.90;;;;;;5063169;28;20090;-74
2022/10/28 04:47:00;;;;;;;6.30;2.55;;;14.00;99.90;;;;;;5064596;28;20398;-74
2022/10/28 04:49:25;;;;;;;6.03;2.58;;;14.00;99.90;;;;;;5062766;28;20613;-74
2022/10/28 04:51:51;;;;;;;8.60;2.63;;;13.90;99.90;;;;;;5062493;28;20032;-74
2022/10/28 04:54:17;;;;;;;3.95;2.38;;;13.90;99.90;;;;;;5062236;28;20044;-74
2022/10/28 04:56:42;;;;;;;8.25;2.90;;;13.90;99.90;;;;;;5061123;28;20044;-74
2022/10/28 04:59:08;;;;;;;5.78;3.00;;;13.90;99.90;;;;;;5047851;28;20131;-74
2022/10/28 05:01:34;;;;;;;5.78;2.67;;;13.90;99.90;;;;;;5061815;28;20041;-74
2022/10/28 05:04:00;;;;;;;12.10;3.33;;;13.90;99.90;;;;;;5045908;28;20490;-74
2022/10/28 05:06:25;;;;;;;7.43;3.10;;;13.90;99.90;;;;;;5062021;28;20036;-74
2022/10/28 05:08:51;;;;;;;6.95;3.35;;;13.80;99.90;;;;;;5045453;28;20045;-74
2022/10/28 05:11:16;;;;;;;6.07;3.15;;;13.80;99.90;;;;;;5061940;28;20067;-74
2022/10/28 05:13:42;;;;;;;7.22;2.88;;;13.80;99.90;;;;;;5061745;28;20167;-74
2022/10/28 05:16:08;;;;;;;5.80;2.58;;;13.80;99.90;;;;;;5063988;28;20063;-74
2022/10/28 05:18:33;;;;;;;5.15;3.15;;;13.80;99.90;;;;;;5058459;28;20046;-74
2022/10/28 05:20:59;;;;;;;5.40;2.65;;;13.80;99.90;;;;;;5062887;28;20452;-74
2022/10/28 05:23:24;;;;;;;7.22;2.63;;;13.80;99.90;;;;;;5061441;28;20086;-74
2022/10/28 05:25:50;;;;;;;8.68;3.67;;;13.80;99.90;;;;;;5063336;28;20482;-74
2022/10/28 05:28:16;;;;;;;6.32;2.92;;;13.80;99.90;;;;;;5060992;28;20082;-74
2022/10/28 05:30:43;;;;;;;5.25;2.58;;;13.70;99.90;;;;;;5042534;28;20763;-74
2022/10/28 05:33:10;;;;;;;5.38;2.80;;;13.70;99.90;;;;;;5045099;28;20075;-74
2022/10/28 05:35:36;;;;;;;5.70;2.65;;;13.70;99.90;;;;;;5044895;28;20037;-74
2022/10/28 05:38:02;;;;;;;5.50;2.80;;;13.70;99.90;;;;;;5062455;28;20038;-74
2022/10/28 05:40:28;;;;;;;7.47;3.15;;;13.70;99.90;;;;;;5043833;28;20032;-74
2022/10/28 05:42:53;;;;;;;4.95;2.42;;;13.70;99.90;;;;;;5042991;28;20119;-74
2022/10/28 05:45:19;;;;;;;6.22;2.78;;;13.60;99.90;;;;;;5062526;28;20548;-74
2022/10/28 05:47:46;;;;;;;6.18;3.75;;;13.60;99.90;;;;;;5063711;28;20523;-74
2022/10/28 05:50:14;;;;;;;6.20;2.75;;;13.60;99.90;;;;;;5062301;28;20045;-74
2022/10/28 05:52:44;;;;;;;6.57;3.15;;;13.50;99.90;;;;;;5060915;28;20152;-74
2022/10/28 05:55:09;;;;;;;5.68;2.85;;;13.50;99.90;;;;;;5060534;28;20040;-74
2022/10/28 05:57:35;;;;;;;4.95;2.97;;;13.50;99.90;;;;;;5043690;28;20719;-74
2022/10/28 06:00:01;;;;;;;5.78;3.40;;;13.50;99.90;;;;;;5061617;28;20131;-74
2022/10/28 06:02:27;;;;;;;3.40;1.90;;;13.50;99.90;;;;;;5060658;28;20047;-74
2022/10/28 06:04:52;;;;;;;5.93;2.95;;;13.50;99.90;;;;;;5044017;28;20036;-74
2022/10/28 06:07:18;;;;;;;8.75;3.13;;;13.50;99.90;;;;;;5044430;28;20037;-74
2022/10/28 06:09:43;;;;;;;8.52;4.15;;;13.50;99.90;;;;;;5062573;28;20044;-74
2022/10/28 06:12:09;;;;;;;5.78;3.35;;;13.60;99.90;;;;;;5059808;28;20410;-74
2022/10/28 06:14:35;;;;;;;4.85;2.70;;;13.50;99.90;;;;;;5077267;28;20059;-74
2022/10/28 06:17:00;;;;;;;5.60;2.40;;;13.60;99.90;;;;;;5062329;28;20055;-74
2022/10/28 06:19:26;;;;;;;6.00;3.10;;;13.50;99.90;;;;;;5061071;28;20402;-74
2022/10/28 06:21:51;;;;;;;5.55;2.60;;;13.60;99.90;;;;;;5064461;28;20329;-74
2022/10/28 06:24:17;;;;;;;3.90;2.17;;;13.60;99.90;;;;;;5047406;28;20056;-74
2022/10/28 06:26:42;;;;;;;4.28;2.55;;;13.60;99.90;;;;;;5063642;28;20044;-74
2022/10/28 06:29:11;;;;;;;6.78;2.95;;;13.60;99.90;;;;;;5062037;28;20123;-74
2022/10/28 06:31:41;;;;;;;5.03;2.58;;;13.60;99.90;;;;;;5063024;28;20040;-74
2022/10/28 06:34:08;;;;;;;6.30;2.53;;;13.50;99.90;;;;;;5059043;28;20046;-76
2022/10/28 06:36:34;;;;;;;5.88;2.70;;;13.60;99.90;;;;;;5060370;28;20040;-77
2022/10/28 06:39:00;;;;;;;5.05;2.50;;;13.60;99.90;;;;;;5043652;28;21048;-74
2022/10/28 06:41:26;;;;;;;4.82;2.22;;;13.60;99.90;;;;;;5061291;28;20032;-74
2022/10/28 06:43:51;;;;;;;5.13;2.35;;;13.60;99.90;;;;;;5060702;28;20072;-74
2022/10/28 06:46:17;;;;;;;6.47;2.70;;;13.70;99.90;;;;;;5063223;28;20043;-75
2022/10/28 06:48:42;;;;;;;9.00;3.55;;;13.70;99.90;;;;;;5060174;28;20040;-76
2022/10/28 06:51:08;;;;;;;3.80;2.13;;;13.70;99.90;;;;;;5060566;28;20047;-75
2022/10/28 06:53:34;;;;;;;5.47;2.38;;;13.70;99.90;;;;;;5058041;28;20033;-75
2022/10/28 06:55:59;;;;;;;9.95;2.63;;;13.80;99.90;;;;;;5059698;28;20037;-75
2022/10/28 06:58:25;;;;;;;5.85;2.38;;;13.80;99.90;;;;;;5059217;28;20048;-75
2022/10/28 07:00:51;;;;;;;5.30;2.65;;;13.80;99.90;;;;;;5043359;28;20081;-75
2022/10/28 07:03:20;;;;;;;6.75;2.53;;;13.80;99.90;;;;;;5061289;28;20033;-76
2022/10/28 07:05:48;;;;;;;7.07;3.50;;;13.80;99.90;;;;;;5060001;28;20040;-75
2022/10/28 07:08:13;;;;;;;7.15;2.55;;;13.90;99.90;;;;;;5058578;28;20040;-75
2022/10/28 07:10:40;;;;;;;7.82;2.97;;;13.90;99.90;;;;;;5054724;28;20045;-75
2022/10/28 07:13:06;;;;;;;7.85;2.67;;;13.90;99.90;;;;;;5036859;28;20448;-75
2022/10/28 07:15:31;;;;;;;5.88;2.85;;;14.00;99.90;;;;;;5056025;28;20059;-75
2022/10/28 07:17:58;;;;;;;4.57;2.22;;;14.00;99.90;;;;;;5059200;28;20040;-75
2022/10/28 07:20:26;;;;;;;5.93;2.05;;;14.10;99.90;;;;;;5058841;28;20051;-75
2022/10/28 07:22:59;;;;;;;4.10;1.92;;;14.10;99.90;;;;;;5058693;28;20045;-75
2022/10/28 07:25:29;;;;;;;5.43;2.25;;;14.10;99.90;;;;;;5056892;28;20082;-75
2022/10/28 07:27:59;;;;;;;4.72;2.10;;;14.10;99.90;;;;;;5051734;28;20185;-75
2022/10/28 07:30:26;;;;;;;4.78;2.10;;;14.20;99.90;;;;;;5033157;28;20040;-76
2022/10/28 07:32:52;;;;;;;4.47;2.50;;;14.20;99.90;;;;;;5056432;28;20041;-75
2022/10/28 07:35:18;;;;;;;7.95;2.95;;;14.20;99.90;;;;;;5059438;28;20048;-75
2022/10/28 07:37:43;;;;;;;5.30;2.67;;;14.30;99.90;;;;;;5057035;28;20478;-75
2022/10/28 07:40:09;;;;;;;8.43;2.83;;;14.30;99.90;;;;;;5057512;28;20040;-75
2022/10/28 07:42:35;;;;;;;6.45;2.60;;;14.40;99.90;;;;;;5059070;28;20056;-76
2022/10/28 07:45:01;;;;;;;4.15;2.10;;;14.40;99.90;;;;;;5056268;28;20032;-75
2022/10/28 07:47:26;;;;;;;5.05;2.67;;;14.40;99.90;;;;;;5054884;28;21681;-76
2022/10/28 07:49:53;;;;;;;5.93;2.65;;;14.40;99.90;;;;;;5039213;28;20036;-75
2022/10/28 07:52:19;;;;;;;4.78;2.42;;;14.50;99.90;;;;;;5055604;28;20067;-74
2022/10/28 07:54:45;;;;;;;5.93;2.83;;;14.50;99.90;;;;;;5073504;28;20398;-75
2022/10/28 07:57:11;;;;;;;5.97;2.05;;;14.50;99.90;;;;;;5051278;28;20063;-75
2022/10/28 07:59:37;;;;;;;4.63;2.40;;;14.60;99.90;;;;;;5034609;28;20040;-75
2022/10/28 08:02:02;;;;;;;7.53;2.40;;;14.70;99.90;;;;;;5056807;28;20033;-75
2022/10/28 08:04:29;;;;;;;4.88;2.65;;;14.60;99.90;;;;;;5055013;28;20483;-75
2022/10/28 08:06:55;;;;;;;5.45;2.35;;;14.70;99.90;;;;;;5038719;28;20036;-75
2022/10/28 08:09:21;;;;;;;4.85;1.98;;;14.70;99.90;;;;;;5058591;28;20477;-75
2022/10/28 08:11:46;;;;;;;10.93;2.90;;;14.80;99.90;;;;;;5060662;28;20064;-75
2022/10/28 08:14:12;;;;;;;9.18;2.90;;;14.80;99.90;;;;;;5046300;28;20044;-75
2022/10/28 08:16:37;;;;;;;8.20;2.33;;;14.80;99.90;;;;;;5060366;28;20044;-75
2022/10/28 08:19:03;;;;;;;5.78;2.20;;;14.90;99.90;;;;;;5060974;28;20414;-76
2022/10/28 08:21:29;;;;;;;5.00;2.58;;;14.90;99.90;;;;;;5060984;28;20482;-75
2022/10/28 08:23:54;;;;;;;3.95;2.28;;;14.90;99.90;;;;;;5062229;28;20044;-75
2022/10/28 08:26:20;;;;;;;5.32;2.13;;;15.00;99.90;;;;;;5044794;28;20029;-75
2022/10/28 08:28:46;;;;;;;4.65;2.15;;;15.00;99.90;;;;;;5061595;28;20129;-75
2022/10/28 08:31:12;;;;;;;9.23;3.13;;;15.10;99.90;;;;;;5060987;28;20048;-75
2022/10/28 08:33:44;;;;;;;6.70;2.53;;;15.10;99.90;;;;;;5042080;28;20051;-75
2022/10/28 08:36:14;;;;;;;4.32;2.28;;;15.10;99.90;;;;;;5058444;28;20554;-74
2022/10/28 08:38:42;;;;;;;5.30;2.30;;;15.20;99.90;;;;;;5041077;28;20036;-74
2022/10/28 08:41:23;;;;;;;4.20;2.08;;;15.30;99.90;;;;;;5054405;28;20072;-75
2022/10/28 08:43:56;;;;;;;5.32;1.90;;;15.30;99.90;;;;;;5059416;28;20389;-75
2022/10/28 08:46:41;;;;;;;7.25;2.08;;;15.40;99.90;;;;;;5054380;28;20044;-77
2022/10/28 08:49:13;;;;;;;7.28;2.63;;;15.50;99.90;;;;;;5059237;28;20131;-76
2022/10/28 08:51:56;;;;;;;10.60;2.95;;;15.50;99.90;;;;;;5038054;28;20403;-75
2022/10/28 08:54:34;;;;;;;5.78;2.13;;;15.60;99.90;;;;;;5055408;28;20036;-75
2022/10/28 08:57:04;;;;;;;3.22;1.60;;;15.60;99.90;;;;;;5057780;28;20029;-75
2022/10/28 08:59:38;;;;;;;5.63;2.08;;;15.70;99.90;;;;;;5058063;28;20045;-74
2022/10/28 09:02:25;;;;;;;4.53;1.77;;;15.70;99.90;;;;;;5055159;28;20044;-76
2022/10/28 09:05:03;;;;;;;5.68;1.52;;;15.80;99.90;;;;;;5070508;28;20369;-73
2022/10/28 09:07:32;;;;;;;5.30;2.10;;;15.90;99.90;;;;;;5050653;28;20071;-76
2022/10/28 09:09:58;;;;;;;5.10;1.98;;;16.00;99.90;;;;;;5055293;28;20033;-76
2022/10/28 09:12:43;;;;;;;4.22;1.90;;;16.00;99.90;;;;;;5055110;28;20037;-77
2022/10/28 09:15:31;;;;;;;5.10;2.00;;;16.10;99.90;;;;;;5035568;28;20472;-74
2022/10/28 09:18:17;;;;;;;5.43;2.25;;;16.20;99.90;;;;;;5056592;28;20494;-75
2022/10/28 09:20:57;;;;;;;6.60;2.10;;;16.20;99.90;;;;;;5054690;28;20036;-75
2022/10/28 09:23:28;;;;;;;3.13;1.80;;;16.20;99.90;;;;;;5055688;28;20262;-76
2022/10/28 09:26:17;;;;;;;4.18;1.80;;;16.20;99.90;;;;;;5059815;28;20086;-76
2022/10/28 09:29:07;;;;;;;4.35;2.00;;;16.20;99.90;;;;;;5038899;28;20472;-75
2022/10/28 09:31:40;;;;;;;2.95;1.92;;;16.30;99.90;;;;;;5040649;28;20041;-76
2022/10/28 09:34:18;;;;;;;2.83;1.48;;;16.30;99.90;;;;;;5060940;28;20036;-76
2022/10/28 09:36:56;;;;;;;4.97;2.28;;;16.30;99.90;;;;;;5055247;28;20032;-75
2022/10/28 09:39:28;;;;;;;3.63;2.00;;;16.30;99.90;;;;;;5060043;28;20165;-76
2022/10/28 09:41:56;;;;;;;4.95;2.35;;;16.30;99.90;;;;;;5041533;28;22033;-75
2022/10/28 09:44:53;;;;;;;11.15;2.72;;;16.30;99.90;;;;;;5059900;28;20534;-76
2022/10/28 09:47:30;;;;;;;6.25;1.65;;;16.40;99.90;;;;;;5057462;28;20055;-75
2022/10/28 09:50:00;;;;;;;3.55;1.95;;;16.40;99.90;;;;;;5058598;28;20518;-76
2022/10/28 09:52:41;;;;;;;6.35;1.92;;;16.40;99.90;;;;;;5058687;28;20520;-76
2022/10/28 09:55:18;;;;;;;3.90;2.08;;;16.50;99.90;;;;;;5059835;28;20560;-76
2022/10/28 09:57:43;;;;;;;3.38;1.95;;;16.50;99.90;;;;;;5044116;28;20541;-76
2022/10/28 10:00:12;;;;;;;4.82;2.25;;;16.50;99.90;;;;;;5059116;28;20115;-76
2022/10/28 10:02:39;;;;;;;7.40;2.25;;;16.50;99.90;;;;;;5058132;28;20098;-76
2022/10/28 10:05:11;;;;;;;7.10;1.77;;;16.60;99.90;;;;;;5038891;28;20115;-76
2022/10/28 10:07:42;;;;;;;5.13;2.15;;;16.60;99.90;;;;;;5039039;28;20044;-76
2022/10/28 10:10:31;;;;;;;3.58;1.92;;;16.60;99.90;;;;;;5057433;28;20151;-76
2022/10/28 10:13:00;;;;;;;5.00;2.20;;;16.60;99.90;;;;;;5058654;28;20045;-76
2022/10/28 10:15:44;;;;;;;6.10;2.17;;;16.70;99.90;;;;;;5035651;28;20052;-76
2022/10/28 10:18:16;;;;;;;5.18;1.70;;;16.60;99.90;;;;;;5047186;28;20483;-76
2022/10/28 10:20:49;;;;;;;4.07;2.22;;;16.70;99.90;;;;;;5052338;28;20098;-76
2022/10/28 10:23:22;;;;;;;6.28;2.28;;;16.70;99.90;;;;;;5040334;28;20505;-76
2022/10/28 10:25:57;;;;;;;7.05;2.78;;;16.70;99.90;;;;;;5053692;28;20042;-76
2022/10/28 10:28:25;;;;;;;3.85;2.03;;;16.80;99.90;;;;;;5054934;28;20044;-76
2022/10/28 10:31:00;;;;;;;8.20;2.03;;;16.80;99.90;;;;;;5056032;28;20422;-76
2022/10/28 10:33:38;;;;;;;3.05;1.73;;;16.80;99.90;;;;;;5049630;28;20048;-76
2022/10/28 10:36:14;;;;;;;3.88;2.05;;;16.80;99.90;;;;;;5057529;28;20512;-76
2022/10/28 10:38:49;;;;;;;6.15;2.83;;;16.80;99.90;;;;;;5051019;28;20044;-76
2022/10/28 10:41:35;;;;;;;5.53;2.17;;;16.80;99.90;;;;;;5053670;28;20028;-76
2022/10/28 10:44:21;;;;;;;4.97;1.92;;;16.90;99.90;;;;;;5052416;28;20086;-76
2022/10/28 10:47:07;;;;;;;4.70;1.83;;;16.90;99.90;;;;;;5054733;28;20509;-75
2022/10/28 10:49:34;;;;;;;4.63;2.15;;;17.00;99.90;;;;;;5056438;28;20059;-75
2022/10/28 10:52:03;;;;;;;3.80;1.65;;;17.00;99.90;;;;;;5053025;28;20047;-75
2022/10/28 10:54:31;;;;;;;5.38;2.10;;;17.00;99.90;;;;;;5050459;28;20048;-75
2022/10/28 10:57:19;;;;;;;3.80;2.00;;;17.00;99.90;;;;;;5041398;28;20759;-75
2022/10/28 10:59:51;;;;;;;4.72;1.35;;;17.20;99.90;;;;;;5055406;28;20082;-74
2022/10/28 11:02:38;;;;;;;4.57;2.28;;;17.20;99.90;;;;;;5056500;28;20032;-74
2022/10/28 11:05:07;;;;;;;6.40;2.42;;;17.10;99.90;;;;;;5055137;28;20123;-74
2022/10/28 11:07:33;;;;;;;6.68;2.55;;;17.20;99.90;;;;;;5056631;28;20413;-74
2022/10/28 11:10:00;;;;;;;3.28;1.52;;;17.30;99.90;;;;;;5058051;28;20032;-74
2022/10/28 11:12:34;;;;;;;5.50;2.03;;;17.30;99.90;;;;;;5056183;28;20062;-74
2022/10/28 11:15:21;;;;;;;5.03;1.65;;;17.30;99.90;;;;;;5057486;28;20049;-74
2022/10/28 11:17:54;;;;;;;5.05;2.17;;;17.30;99.90;;;;;;5057798;28;20493;-74
2022/10/28 11:20:36;;;;;;;3.58;1.60;;;17.30;99.90;;;;;;5054024;28;20040;-75
2022/10/28 11:23:24;;;;;;;4.55;1.85;;;17.30;99.90;;;;;;5073613;28;20498;-75
2022/10/28 11:25:53;;;;;;;3.25;1.60;;;17.30;99.90;;;;;;5058332;28;20037;-76
2022/10/28 11:28:21;;;;;;;6.18;1.55;;;17.40;99.90;;;;;;5040752;28;20044;-75
2022/10/28 11:31:14;;;;;;;5.70;1.88;;;17.40;99.90;;;;;;5054381;28;20540;-76
2022/10/28 11:34:03;;;;;;;3.47;1.88;;;17.50;99.90;;;;;;5056757;28;20040;-75
2022/10/28 11:36:38;;;;;;;5.45;1.80;;;17.50;99.90;;;;;;5055117;28;20044;-75
2022/10/28 11:39:24;;;;;;;3.42;1.52;;;17.50;99.90;;;;;;5051098;28;20131;-75
2022/10/28 11:42:26;;;;;;;3.28;1.60;;;17.50;99.90;;;;;;5033786;28;20087;-75
2022/10/28 11:44:54;;;;;;;5.40;1.98;;;17.60;99.90;;;;;;5010244;28;20366;-75
2022/10/28 11:47:39;;;;;;;7.05;2.30;;;17.60;99.90;;;;;;5044633;28;20041;-76
2022/10/28 11:50:24;;;;;;;4.00;1.70;;;17.60;99.90;;;;;;5056326;28;20097;-75
2022/10/28 11:53:04;;;;;;;4.63;1.73;;;17.60;99.90;;;;;;5060445;28;20589;-75
2022/10/28 11:55:52;;;;;;;3.65;1.73;;;17.60;99.90;;;;;;5077971;28;20479;-75
2022/10/28 11:58:48;;;;;;;5.18;2.00;;;17.70;99.90;;;;;;5054210;28;20048;-75
2022/10/28 12:01:35;;;;;;;3.03;1.40;;;17.70;99.90;;;;;;5061940;28;21339;-75
2022/10/28 12:04:18;;;;;;;6.30;1.70;;;17.70;99.90;;;;;;5061629;28;20040;-75
2022/10/28 12:06:47;;;;;;;5.25;1.70;;;17.70;99.90;;;;;;5077044;28;20525;-75
2022/10/28 12:09:44;;;;;;;4.20;1.42;;;17.80;99.90;;;;;;5040628;28;20402;-75
2022/10/28 12:12:28;;;;;;;6.65;2.40;;;17.80;99.90;;;;;;5026687;28;20071;-75
2022/10/28 12:15:15;;;;;;;5.68;1.73;;;17.90;99.90;;;;;;5060013;28;20286;-75
2022/10/28 12:17:53;;;;;;;4.47;2.00;;;17.90;99.90;;;;;;5062017;28;20041;-75
2022/10/28 12:20:25;;;;;;;5.47;1.40;;;17.90;99.90;;;;;;5059594;28;20119;-75
2022/10/28 12:22:59;;;;;;;6.82;1.70;;;17.90;99.90;;;;;;5060773;28;20047;-75
2022/10/28 12:25:27;;;;;;;5.65;1.80;;;18.00;99.90;;;;;;5063070;28;20045;-75
2022/10/28 12:28:26;;;;;;;3.63;1.70;;;18.00;99.90;;;;;;5061767;28;20044;-75
2022/10/28 12:30:53;;;;;;;4.38;1.77;;;18.00;99.90;;;;;;5061008;28;20046;-75
2022/10/28 12:33:28;;;;;;;3.35;1.70;;;18.00;99.90;;;;;;5061165;28;20044;-75
2022/10/28 12:36:16;;;;;;;9.10;1.70;;;18.00;99.90;;;;;;5046084;28;20048;-75
2022/10/28 12:39:02;;;;;;;8.45;1.50;;;18.00;99.90;;;;;;5044471;28;20332;-75
2022/10/28 12:41:54;;;;;;;6.50;2.10;;;18.00;99.90;;;;;;5061154;28;20037;-75
2022/10/28 12:44:21;;;;;;;3.95;2.10;;;18.10;99.90;;;;;;4997384;28;20395;-75
2022/10/28 12:47:34;;;;;;;4.40;2.10;;;18.10;99.90;;;;;;5060487;28;20117;-75
2022/10/28 12:50:12;;;;;;;6.00;2.25;;;18.10;99.90;;;;;;5025776;28;20102;-75
2022/10/28 12:52:54;;;;;;;3.38;1.98;;;18.10;99.90;;;;;;5073818;28;20371;-75
2022/10/28 12:55:46;;;;;;;10.40;1.50;;;18.10;99.90;;;;;;5065798;28;20044;-75
2022/10/28 12:58:32;;;;;;;5.50;2.22;;;18.10;99.90;;;;;;5059189;28;20076;-75
2022/10/28 13:01:09;;;;;;;5.47;1.60;;;18.20;99.90;;;;;;5059642;28;20035;-75
2022/10/28 13:03:35;;;;;;;5.07;2.05;;;18.20;99.90;;;;;;5041040;28;20045;-75
2022/10/28 13:06:12;;;;;;;6.22;2.03;;;18.20;99.90;;;;;;5061183;28;20133;-75
2022/10/28 13:08:59;;;;;;;4.50;1.88;;;18.20;99.90;;;;;;5055491;28;20592;-75
2022/10/28 13:11:52;;;;;;;6.68;1.92;;;18.20;99.90;;;;;;5059945;28;20044;-75